Time;durP1;ratioP1;P1;durP2;ratioP2;P2;SDS_P1;SDS_P2;PMS_P1;PMS_P2;Temp;Humidity;BMP_temperature;BMP_pressure;BME280_temperature;BME280_humidity;BME280_pressure;Samples;Min_cycle;Max_cycle;Signal;HPM_P1;HPM_P2
2021/12/04 00:01:11;;;;;;;9.00;5.75;;;4.50;99.80;;;4.93;100.00;99409.00;4878647;29;20047;-77
2021/12/04 00:03:40;;;;;;;12.45;7.40;;;4.50;99.90;;;4.93;100.00;99415.06;4877628;29;20046;-77
2021/12/04 00:06:16;;;;;;;11.57;4.80;;;4.50;99.80;;;4.93;100.00;99403.78;4870584;29;20052;-76
2021/12/04 00:08:46;;;;;;;8.18;4.78;;;4.50;99.60;;;4.87;100.00;99407.34;4881770;29;20132;-77
2021/12/04 00:11:14;;;;;;;8.02;6.20;;;4.50;99.60;;;4.90;100.00;99393.38;4896333;29;20079;-77
2021/12/04 00:13:41;;;;;;;12.93;5.97;;;5.50;99.80;;;4.91;100.00;99388.16;4880196;29;20624;-77
2021/12/04 00:16:09;;;;;;;9.40;5.20;;;4.50;99.90;;;5.06;100.00;99389.63;4881390;29;20450;-76
2021/12/04 00:18:36;;;;;;;10.50;5.57;;;4.40;99.90;;;4.87;100.00;99383.00;4896143;29;20470;-76
2021/12/04 00:21:03;;;;;;;6.20;4.25;;;3.80;99.60;;;4.98;100.00;99383.69;4880824;29;20047;-75
2021/12/04 00:23:30;;;;;;;4.63;2.80;;;4.40;99.70;;;4.91;100.00;99380.34;4895900;29;20874;-76
2021/12/04 00:25:57;;;;;;;5.03;3.38;;;4.50;99.70;;;4.91;100.00;99369.91;4881151;29;20139;-76
2021/12/04 00:28:25;;;;;;;5.53;3.53;;;5.20;99.70;;;4.93;100.00;99365.53;4880401;29;20046;-76
2021/12/04 00:30:53;;;;;;;7.20;4.25;;;4.50;99.90;;;4.97;100.00;99359.34;4895956;29;20055;-76
2021/12/04 00:33:25;;;;;;;4.70;3.50;;;5.00;99.80;;;5.09;100.00;99354.81;4895566;29;20449;-76
2021/12/04 00:35:58;;;;;;;5.20;3.75;;;4.40;99.60;;;4.88;100.00;99333.47;4881307;29;20146;-77
2021/12/04 00:49:33;;;;;;;19.08;10.60;;;6.10;99.90;;;5.06;100.00;99310.56;4897997;29;19927;-76
2021/12/04 00:52:00;;;;;;;16.42;10.38;;;4.50;99.80;;;4.96;100.00;99299.44;4880407;29;20044;-77
2021/12/04 00:54:28;;;;;;;13.82;9.05;;;4.50;99.90;;;5.02;100.00;99298.47;4895127;29;20044;-77
2021/12/04 00:56:56;;;;;;;11.30;7.30;;;4.50;99.80;;;5.00;100.00;99301.09;4880371;29;20054;-76
2021/12/04 00:59:23;;;;;;;5.88;4.00;;;6.00;99.90;;;4.97;100.00;99293.34;4879915;29;20422;-76
2021/12/04 01:01:50;;;;;;;5.07;3.50;;;4.50;99.50;;;4.90;100.00;99283.91;4895281;29;20047;-77
2021/12/04 01:04:20;;;;;;;7.80;3.53;;;4.50;99.40;;;4.96;100.00;99284.66;4889418;29;20147;-76
2021/12/04 01:06:48;;;;;;;;;;;4.50;99.40;;;5.10;100.00;99275.72;4877597;29;20049;-77
2021/12/04 01:09:18;;;;;;;3.95;3.05;;;6.80;99.90;;;5.14;100.00;99276.53;4861547;29;20373;-77
2021/12/04 01:11:47;;;;;;;4.72;3.40;;;4.50;99.60;;;5.03;100.00;99277.56;4861324;29;20052;-77
2021/12/04 01:14:17;;;;;;;3.60;3.22;;;5.70;99.90;;;5.12;100.00;99276.53;4845953;29;20083;-77
2021/12/04 01:16:45;;;;;;;4.57;3.15;;;4.50;99.70;;;5.10;100.00;99276.59;4846388;29;20059;-76
2021/12/04 01:19:14;;;;;;;3.28;2.40;;;4.50;99.80;;;5.15;100.00;99271.28;4861679;29;20230;-77
2021/12/04 01:21:42;;;;;;;4.73;2.70;;;4.60;99.70;;;5.17;100.00;99279.06;4893543;29;20055;-76
2021/12/04 01:24:10;;;;;;;3.22;2.58;;;6.00;99.90;;;5.18;100.00;99281.66;4872913;29;20392;-76
2021/12/04 01:26:38;;;;;;;3.75;2.47;;;4.60;99.80;;;5.21;100.00;99272.88;4858355;29;20143;-77
2021/12/04 01:29:05;;;;;;;5.20;2.55;;;6.80;99.90;;;5.24;100.00;99276.31;4858504;29;20057;-77
2021/12/04 01:31:32;;;;;;;3.83;3.17;;;4.60;99.90;;;5.23;100.00;99271.97;4857982;29;20079;-77
2021/12/04 01:33:59;;;;;;;4.32;3.53;;;4.60;99.90;;;5.19;100.00;99265.13;4857707;29;20135;-77
2021/12/04 01:36:27;;;;;;;5.93;3.42;;;4.60;99.90;;;5.16;100.00;99259.97;4858321;29;20053;-77
2021/12/04 01:38:55;;;;;;;5.15;3.53;;;4.70;99.90;;;5.23;100.00;99258.09;4881681;29;20048;-76
2021/12/04 01:41:22;;;;;;;4.07;3.13;;;4.70;99.90;;;5.34;100.00;99257.88;4895231;29;20060;-76
2021/12/04 01:43:49;;;;;;;3.55;2.80;;;4.80;99.90;;;5.38;100.00;99252.53;4879657;29;20044;-76
2021/12/04 01:46:16;;;;;;;2.78;2.20;;;4.80;99.90;;;5.42;100.00;99249.91;4879784;29;20052;-77
2021/12/04 01:48:43;;;;;;;4.18;1.90;;;6.60;99.90;;;5.62;100.00;99239.00;4880295;29;20078;-77
2021/12/04 01:51:11;;;;;;;3.88;2.33;;;6.10;99.90;;;5.58;100.00;99234.75;4895389;29;20705;-76
2021/12/04 01:53:38;;;;;;;2.53;1.70;;;5.00;99.90;;;5.56;100.00;99226.97;4870938;29;20120;-76
2021/12/04 01:56:05;;;;;;;2.50;1.75;;;5.10;99.90;;;5.58;100.00;99219.97;4884082;29;20417;-77
2021/12/04 01:58:32;;;;;;;3.95;1.75;;;5.00;99.90;;;5.56;100.00;99221.75;4896590;29;20064;-76
2021/12/04 02:00:59;;;;;;;3.45;1.77;;;4.20;99.90;;;5.61;100.00;99227.72;4863498;29;20055;-78
2021/12/04 02:03:27;;;;;;;2.83;2.05;;;5.10;99.90;;;5.68;100.00;99216.25;4897868;29;20055;-76
2021/12/04 02:05:54;;;;;;;7.00;3.58;;;5.10;99.90;;;5.62;100.00;99213.78;4883362;29;20055;-76
2021/12/04 02:08:23;;;;;;;2.42;1.98;;;5.10;99.90;;;5.68;100.00;99202.34;4884947;29;20064;-76
2021/12/04 02:10:56;;;;;;;3.47;1.50;;;5.00;99.90;;;5.67;100.00;99208.47;4900972;29;20054;-76
2021/12/04 02:13:25;;;;;;;3.58;2.20;;;5.10;99.90;;;5.62;100.00;99195.50;4868964;29;20078;-77
2021/12/04 02:15:53;;;;;;;2.33;2.13;;;7.10;99.90;;;5.74;100.00;99196.13;4900463;29;20093;-77
2021/12/04 02:18:22;;;;;;;4.18;2.55;;;6.50;99.90;;;5.80;100.00;99194.25;4884887;29;20512;-77
2021/12/04 02:20:50;;;;;;;4.22;2.20;;;5.00;99.90;;;5.78;100.00;99196.03;4900788;29;20568;-76
2021/12/04 02:23:17;;;;;;;2.33;2.10;;;5.60;99.90;;;5.71;100.00;99193.59;4916166;29;20048;-76
2021/12/04 02:25:45;;;;;;;5.32;2.97;;;7.20;99.90;;;5.68;100.00;99187.53;4884916;29;20044;-77
2021/12/04 02:28:12;;;;;;;5.68;3.38;;;5.20;99.90;;;5.77;100.00;99180.41;4900195;29;20130;-77
2021/12/04 02:30:43;;;;;;;3.90;2.88;;;4.50;99.90;;;5.93;100.00;99181.75;4900536;29;20509;-76
2021/12/04 02:33:11;;;;;;;2.50;1.63;;;5.10;99.90;;;5.79;100.00;99170.78;4899662;29;20048;-76
2021/12/04 02:35:47;;;;;;;3.10;2.10;;;5.10;99.90;;;5.83;100.00;99175.03;4885170;29;20055;-77
2021/12/04 02:38:16;;;;;;;3.30;2.10;;;5.00;99.90;;;5.57;100.00;99149.53;4900135;29;20058;-76
2021/12/04 02:40:46;;;;;;;3.80;2.03;;;7.00;99.90;;;5.60;100.00;99152.06;4900536;29;20159;-77
2021/12/04 02:43:14;;;;;;;3.53;2.10;;;4.90;99.90;;;5.56;100.00;99153.91;4899100;29;20111;-78
2021/12/04 02:45:42;;;;;;;4.50;2.42;;;6.10;99.90;;;5.49;100.00;99137.53;4884471;29;20055;-77
2021/12/04 02:48:11;;;;;;;3.55;2.25;;;4.90;99.90;;;5.52;100.00;99134.84;4900068;29;20063;-76
2021/12/04 02:50:39;;;;;;;4.13;2.53;;;4.80;99.90;;;5.38;100.00;99132.53;4916804;29;20484;-76
2021/12/04 02:53:06;;;;;;;5.32;3.10;;;6.20;99.90;;;5.34;100.00;99127.47;4899296;29;20048;-76
2021/12/04 02:55:34;;;;;;;4.80;3.40;;;4.60;99.90;;;5.33;100.00;99133.56;4884645;29;20094;-77
2021/12/04 02:58:02;;;;;;;7.05;3.30;;;6.10;99.90;;;5.38;100.00;99118.66;4899778;29;20131;-76
2021/12/04 03:00:30;;;;;;;3.70;2.83;;;6.80;99.90;;;5.28;100.00;99118.00;4916471;29;20055;-77
2021/12/04 03:02:57;;;;;;;4.22;3.10;;;4.60;99.90;;;5.18;100.00;99116.50;4874548;29;20048;-76
2021/12/04 03:05:27;;;;;;;4.30;2.72;;;4.50;99.90;;;5.23;100.00;99105.06;4864970;29;20051;-76
2021/12/04 03:07:57;;;;;;;3.65;3.33;;;4.50;99.90;;;5.18;100.00;99104.31;4880644;29;20413;-76
2021/12/04 03:10:26;;;;;;;2.88;2.58;;;7.00;99.90;;;5.19;100.00;99097.34;4879609;29;20048;-76
2021/12/04 03:12:53;;;;;;;4.43;2.40;;;4.50;99.90;;;5.21;100.00;99082.50;4879641;29;20080;-78
2021/12/04 03:15:22;;;;;;;4.68;2.28;;;4.40;99.90;;;5.17;100.00;99075.66;4897164;29;20625;-76
2021/12/04 03:17:51;;;;;;;4.20;2.40;;;5.90;99.90;;;5.10;100.00;99082.75;4879899;29;20052;-76
2021/12/04 03:20:18;;;;;;;4.85;2.40;;;4.50;99.90;;;5.19;100.00;99081.69;4879827;29;20099;-76
2021/12/04 03:22:48;;;;;;;3.38;2.05;;;4.40;99.90;;;4.99;100.00;99074.31;4863020;29;20058;-76
2021/12/04 03:25:18;;;;;;;2.58;2.10;;;4.40;99.90;;;4.80;100.00;99080.78;4880089;29;20076;-76
2021/12/04 03:27:49;;;;;;;3.10;1.80;;;6.70;99.90;;;4.80;100.00;99075.59;4879307;29;20096;-77
2021/12/04 03:30:34;;;;;;;2.15;1.80;;;4.40;99.90;;;5.02;100.00;99059.47;4864455;29;20529;-78
2021/12/04 03:41:06;;;;;;;3.00;2.25;;;4.80;99.90;;;4.59;100.00;99032.59;4866657;29;20017;-77
2021/12/04 03:43:34;;;;;;;4.25;2.58;;;6.10;99.90;;;4.64;100.00;99029.91;4880322;29;20056;-76
2021/12/04 03:46:05;;;;;;;2.95;2.50;;;4.70;99.90;;;4.68;100.00;99024.59;4879822;29;20052;-76
2021/12/04 03:51:05;;;;;;;2.42;1.92;;;6.00;99.90;;;4.56;100.00;99018.78;4879754;29;20583;-77
2021/12/04 03:53:33;;;;;;;2.85;1.83;;;4.40;99.90;;;4.65;100.00;99010.78;4896064;29;20314;-76
2021/12/04 03:56:00;;;;;;;2.80;1.95;;;6.30;99.90;;;4.63;100.00;99016.00;4880229;29;20051;-77
2021/12/04 03:58:27;;;;;;;2.38;2.03;;;5.20;99.90;;;4.96;100.00;99000.50;4896208;29;20058;-76
2021/12/04 04:00:56;;;;;;;2.65;2.13;;;4.30;99.90;;;4.66;100.00;99007.28;4865305;29;20044;-76
2021/12/04 04:03:27;;;;;;;3.13;2.33;;;4.20;99.90;;;4.67;100.00;99003.78;4897550;29;20054;-77
2021/12/04 04:05:55;;;;;;;3.90;2.30;;;6.40;99.90;;;5.00;100.00;99003.06;4898967;29;20048;-75
2021/12/04 04:08:22;;;;;;;3.50;2.60;;;4.20;99.90;;;4.77;100.00;98997.47;4898066;29;20532;-77
2021/12/04 04:10:53;;;;;;;3.55;2.30;;;4.60;99.90;;;4.69;100.00;98983.75;4899165;29;20051;-76
2021/12/04 04:13:21;;;;;;;2.38;2.17;;;4.20;99.90;;;4.61;100.00;98983.06;4898013;29;20103;-76
2021/12/04 04:15:48;;;;;;;2.45;2.05;;;4.10;99.90;;;4.87;100.00;98979.00;4914916;29;20072;-76
2021/12/04 04:18:16;;;;;;;3.50;2.40;;;4.20;99.90;;;4.87;100.00;98992.03;4882399;29;20062;-76
2021/12/04 04:20:43;;;;;;;2.72;1.95;;;4.20;99.90;;;4.78;100.00;98988.78;4897869;29;20160;-76
2021/12/04 04:23:11;;;;;;;2.88;2.30;;;5.60;99.90;;;4.58;100.00;98980.50;4881613;29;20669;-76
2021/12/04 04:25:38;;;;;;;2.15;1.95;;;5.30;99.90;;;4.43;100.00;98973.91;4898087;29;20044;-77
2021/12/04 04:28:06;;;;;;;4.07;2.00;;;4.40;99.90;;;4.48;100.00;98975.53;4882214;29;20047;-76
2021/12/04 04:30:34;;;;;;;3.10;2.35;;;4.20;99.90;;;4.50;100.00;98972.88;4914990;29;20138;-76
2021/12/04 04:33:02;;;;;;;3.65;2.20;;;5.10;99.90;;;4.49;100.00;98964.22;4913691;29;20056;-77
2021/12/04 04:35:32;;;;;;;2.63;2.28;;;6.00;99.90;;;4.47;100.00;98967.72;4914806;29;20044;-76
2021/12/04 04:38:10;;;;;;;3.45;2.03;;;4.20;99.90;;;4.46;100.00;98955.59;4882534;29;20512;-76
2021/12/04 05:13:00;;;;;;;5.00;4.07;;;4.20;99.90;;;4.63;100.00;98922.22;4900172;29;20073;-77
2021/12/04 05:15:39;;;;;;;4.90;3.75;;;5.80;99.90;;;4.40;100.00;98915.78;4879491;29;20044;-77
2021/12/04 05:21:05;;;;;;;7.45;4.57;;;5.10;99.90;;;4.46;100.00;98930.41;4895000;29;20055;-76
2021/12/04 05:23:47;;;;;;;5.88;4.43;;;4.10;99.90;;;4.51;100.00;98919.88;4877723;29;20056;-76
2021/12/04 05:26:25;;;;;;;5.53;5.00;;;4.10;99.90;;;4.50;100.00;98919.03;4878737;29;20470;-76
2021/12/04 05:29:00;;;;;;;5.70;4.57;;;4.10;99.90;;;4.50;100.00;98915.56;4894946;29;20554;-76
2021/12/04 05:31:28;;;;;;;8.38;4.75;;;4.10;99.90;;;4.50;100.00;98916.44;4860801;29;20704;-76
2021/12/04 05:33:55;;;;;;;6.43;4.90;;;4.10;99.90;;;4.46;100.00;98914.78;4846840;29;20074;-76
2021/12/04 05:36:24;;;;;;;6.68;5.50;;;4.10;99.90;;;4.48;100.00;98909.53;4847797;29;20537;-76
2021/12/04 05:38:52;;;;;;;8.45;5.80;;;5.10;99.90;;;4.57;100.00;98905.84;4863777;29;20049;-77
2021/12/04 05:41:19;;;;;;;7.47;5.95;;;3.40;99.90;;;4.38;100.00;98896.72;4863583;29;20045;-76
2021/12/04 05:43:48;;;;;;;6.30;5.38;;;4.20;99.90;;;4.48;100.00;98896.50;4879509;29;20044;-76
2021/12/04 05:46:17;;;;;;;6.75;5.63;;;4.20;99.90;;;4.57;100.00;98908.47;4847461;29;20041;-76
2021/12/04 05:53:58;;;;;;;7.78;6.65;;;4.10;99.90;;;4.43;100.00;98893.16;4884536;29;20066;-76
2021/12/04 05:56:27;;;;;;;7.90;6.20;;;4.90;99.90;;;4.50;100.00;98886.91;4879841;29;20439;-76
2021/12/04 05:58:56;;;;;;;;;;;4.40;99.90;;;4.63;100.00;98890.09;4849315;29;20091;-76
2021/12/04 06:01:23;;;;;;;8.77;6.78;;;3.20;99.90;;;4.58;100.00;98879.78;4879817;29;19935;-76
2021/12/04 06:03:51;;;;;;;7.32;6.15;;;4.10;99.90;;;4.51;100.00;98884.28;4848043;29;20049;-76
2021/12/04 06:06:19;;;;;;;8.75;6.85;;;4.20;99.90;;;4.50;100.00;98889.50;4862923;29;20755;-77
2021/12/04 06:08:47;;;;;;;8.43;6.85;;;4.10;99.90;;;4.51;100.00;98881.69;4863611;29;20417;-76
2021/12/04 06:11:14;;;;;;;8.13;6.60;;;4.90;99.90;;;4.53;100.00;98872.06;4863169;29;20057;-77
2021/12/04 06:13:41;;;;;;;7.90;7.05;;;4.10;99.90;;;4.51;100.00;98871.25;4879311;29;20435;-77
2021/12/04 06:16:08;;;;;;;9.55;7.70;;;4.00;99.90;;;4.52;100.00;98867.75;4847470;29;20771;-77
2021/12/04 06:18:40;;;;;;;8.35;6.60;;;6.70;99.90;;;4.56;100.00;98870.28;4847589;29;20049;-77
2021/12/04 06:23:53;;;;;;;10.25;7.47;;;4.10;99.90;;;4.53;100.00;98871.22;4864368;29;20049;-76
2021/12/04 06:26:21;;;;;;;8.48;7.57;;;5.40;99.90;;;4.52;100.00;98865.16;4862369;29;20041;-76
2021/12/04 06:28:48;;;;;;;9.38;7.80;;;5.70;99.90;;;4.47;100.00;98848.78;4878725;29;20119;-76
2021/12/04 06:31:15;;;;;;;8.57;7.68;;;6.10;99.90;;;4.45;100.00;98849.69;4877135;29;20109;-76
2021/12/04 06:33:43;;;;;;;9.75;8.45;;;4.20;99.90;;;4.51;100.00;98845.22;4861777;29;20045;-76
2021/12/04 06:36:10;;;;;;;11.38;8.77;;;4.20;99.90;;;4.57;100.00;98841.59;4877171;29;20482;-76
2021/12/04 06:38:37;;;;;;;9.90;8.82;;;4.20;99.90;;;4.60;100.00;98849.34;4877287;29;20495;-76
2021/12/04 06:41:06;;;;;;;11.00;8.82;;;4.20;99.90;;;4.57;100.00;98845.94;4861946;29;20053;-76
2021/12/04 06:43:35;;;;;;;10.77;8.82;;;5.20;99.90;;;4.59;100.00;98852.84;4878759;29;20049;-77
2021/12/04 06:46:05;;;;;;;12.88;11.13;;;4.20;99.90;;;4.67;100.00;98852.66;4846573;29;20056;-76
2021/12/04 06:48:43;;;;;;;13.73;10.57;;;4.20;99.90;;;4.56;100.00;98841.63;4862350;29;20053;-77
2021/12/04 06:51:25;;;;;;;10.52;9.43;;;4.20;99.90;;;4.56;100.00;98841.63;4862051;29;20523;-77
2021/12/04 06:56:42;;;;;;;12.50;9.27;;;6.20;99.90;;;4.49;100.00;98849.59;4866965;29;20053;-77
2021/12/04 06:59:13;;;;;;;11.43;9.10;;;4.20;99.90;;;4.59;100.00;98847.63;4849761;29;20589;-77
2021/12/04 07:01:41;;;;;;;10.68;9.18;;;4.60;99.90;;;4.57;100.00;98843.34;4863834;29;20061;-77
2021/12/04 07:04:09;;;;;;;14.27;10.07;;;4.90;99.90;;;4.62;100.00;98836.28;4869249;29;20048;-77
2021/12/04 07:06:37;;;;;;;22.67;14.77;;;4.20;99.90;;;4.62;100.00;98831.09;4879841;29;20052;-78
2021/12/04 07:09:06;;;;;;;16.02;11.70;;;6.10;99.90;;;4.68;100.00;98833.53;4859776;29;20415;-78
2021/12/04 07:11:33;;;;;;;13.18;10.82;;;6.10;99.90;;;4.67;100.00;98842.22;4850867;29;20156;-77
2021/12/04 07:14:00;;;;;;;14.07;12.13;;;4.30;99.90;;;4.70;100.00;98843.91;4871217;29;20048;-76
2021/12/04 07:16:27;;;;;;;14.18;11.60;;;4.30;99.90;;;4.66;100.00;98830.94;4869735;29;20048;-76
2021/12/04 07:18:55;;;;;;;18.15;13.15;;;4.30;99.90;;;4.92;100.00;98836.44;4871033;29;20073;-76
2021/12/04 07:21:23;;;;;;;14.75;12.07;;;4.30;99.90;;;4.77;100.00;98838.53;4869342;29;20050;-75
2021/12/04 07:23:50;;;;;;;13.27;11.98;;;4.30;99.90;;;4.65;100.00;98836.22;4844078;29;20056;-76
2021/12/04 07:26:19;;;;;;;12.45;10.70;;;4.30;99.90;;;4.96;100.00;98840.66;4873363;29;20056;-76
2021/12/04 07:28:46;;;;;;;11.57;9.77;;;4.30;99.90;;;4.83;100.00;98835.75;4862596;29;20048;-76
2021/12/04 07:31:13;;;;;;;12.65;10.45;;;4.30;99.90;;;4.82;100.00;98831.44;4878700;29;20450;-75
2021/12/04 07:33:41;;;;;;;11.93;10.20;;;4.40;99.90;;;4.62;100.00;98831.91;4877725;29;20052;-76
2021/12/04 07:36:08;;;;;;;14.25;11.48;;;4.40;99.90;;;4.64;100.00;98831.91;4877141;29;20403;-77
2021/12/04 07:38:36;;;;;;;11.77;10.57;;;4.40;99.90;;;4.67;100.00;98821.38;4878120;29;20365;-76
2021/12/04 07:41:03;;;;;;;14.05;11.90;;;4.40;99.90;;;4.70;100.00;98817.88;4853778;29;20057;-76
2021/12/04 07:43:31;;;;;;;13.48;11.82;;;4.50;99.90;;;4.71;100.00;98825.63;4859472;29;20041;-75
2021/12/04 07:45:58;;;;;;;14.75;13.00;;;5.10;99.90;;;4.71;100.00;98817.81;4845716;29;20128;-76
2021/12/04 07:48:26;;;;;;;20.58;14.60;;;5.70;99.90;;;4.72;100.00;98811.69;4847225;29;20041;-75
2021/12/04 07:50:55;;;;;;;17.48;13.20;;;4.40;99.90;;;4.64;100.00;98824.91;4875706;29;20056;-76
2021/12/04 07:53:22;;;;;;;17.92;13.20;;;6.30;99.90;;;4.72;100.00;98822.13;4899875;29;20107;-76
2021/12/04 07:55:50;;;;;;;15.98;12.60;;;4.50;99.90;;;4.72;100.00;98821.28;4884062;29;20103;-76
2021/12/04 07:58:17;;;;;;;21.45;14.90;;;5.10;99.90;;;4.74;100.00;98812.50;4899565;29;20075;-76
2021/12/04 08:00:45;;;;;;;16.85;13.77;;;5.60;99.90;;;4.85;100.00;98806.19;4883783;29;20052;-76
2021/12/04 08:03:12;;;;;;;21.65;14.40;;;5.20;99.90;;;4.80;100.00;98803.69;4891660;29;20040;-76
2021/12/04 08:05:43;;;;;;;19.85;14.57;;;6.20;99.90;;;4.92;100.00;98805.97;4858934;29;20068;-76
2021/12/04 08:08:11;;;;;;;16.15;12.38;;;6.10;99.90;;;5.09;100.00;98796.88;4895465;29;20039;-76
2021/12/04 08:10:40;;;;;;;15.10;12.73;;;4.60;99.90;;;4.88;100.00;98793.94;4896873;29;20059;-76
2021/12/04 08:13:08;;;;;;;17.20;13.10;;;6.70;99.90;;;4.96;100.00;98801.56;4880956;29;20049;-76
2021/12/04 08:15:36;;;;;;;16.38;14.32;;;5.10;99.90;;;4.86;100.00;98781.84;4881924;29;20544;-75
2021/12/04 08:18:07;;;;;;;21.17;15.23;;;5.90;99.90;;;4.99;100.00;98795.38;4882178;29;20048;-76
2021/12/04 08:20:36;;;;;;;20.70;15.98;;;6.20;99.90;;;5.04;100.00;98791.75;4875433;29;20097;-76
2021/12/04 08:23:05;;;;;;;24.65;17.08;;;4.70;99.90;;;5.08;100.00;98801.25;4864426;29;20563;-76
2021/12/04 08:25:37;;;;;;;24.10;18.10;;;4.70;99.90;;;5.03;100.00;98790.06;4882146;29;20044;-76
2021/12/04 08:28:05;;;;;;;21.77;17.65;;;4.70;99.90;;;5.16;100.00;98802.78;4864799;29;20065;-76
2021/12/04 08:30:36;;;;;;;21.45;16.13;;;6.50;99.90;;;5.09;100.00;98783.81;4882184;29;20052;-76
2021/12/04 08:33:03;;;;;;;14.38;12.88;;;4.80;99.90;;;5.13;100.00;98795.88;4882240;29;20908;-76
2021/12/04 08:35:35;;;;;;;11.98;10.57;;;7.30;99.90;;;5.14;100.00;98791.53;4883878;29;20082;-78
2021/12/04 08:38:03;;;;;;;12.13;10.80;;;6.60;99.90;;;5.20;100.00;98789.63;4895793;29;20091;-76
2021/12/04 08:40:30;;;;;;;14.50;12.32;;;4.90;99.90;;;5.25;100.00;98792.09;4886630;29;20066;-76
2021/12/04 08:42:58;;;;;;;15.05;12.73;;;5.20;99.90;;;5.25;100.00;98787.72;4906057;29;20063;-76
2021/12/04 08:45:27;;;;;;;15.05;13.45;;;6.50;99.90;;;5.30;100.00;98792.81;4889254;29;20060;-75
2021/12/04 08:47:54;;;;;;;16.15;13.50;;;5.00;99.90;;;5.30;100.00;98786.72;4876986;29;20049;-75
2021/12/04 08:50:27;;;;;;;14.45;12.70;;;6.30;99.90;;;5.35;100.00;98788.31;4876245;29;20128;-76
2021/12/04 08:52:55;;;;;;;17.27;13.82;;;6.30;99.90;;;5.39;100.00;98782.13;4846647;29;20063;-77
2021/12/04 08:55:24;;;;;;;17.63;14.95;;;5.00;99.90;;;5.46;100.00;98784.56;4861182;29;20572;-75
2021/12/04 08:57:52;;;;;;;22.75;17.42;;;5.40;99.90;;;5.42;100.00;98785.56;4845025;29;20416;-76
2021/12/04 09:00:41;;;;;;;17.30;15.25;;;5.10;99.90;;;5.51;100.00;98790.50;4876266;29;20480;-76
2021/12/04 09:03:09;;;;;;;17.98;14.73;;;5.20;99.90;;;5.48;100.00;98788.84;4876074;29;20107;-75
2021/12/04 09:05:37;;;;;;;14.18;12.68;;;5.50;99.90;;;5.47;100.00;98781.94;4875587;29;20130;-76
2021/12/04 09:08:08;;;;;;;17.63;14.85;;;5.40;99.90;;;5.53;100.00;98780.88;4855936;29;20052;-76
2021/12/04 09:10:40;;;;;;;19.02;15.30;;;5.20;99.90;;;5.54;100.00;98779.97;4853533;29;20048;-76
2021/12/04 09:13:09;;;;;;;15.20;13.60;;;6.10;99.90;;;5.54;100.00;98772.13;4852263;29;20081;-76
2021/12/04 09:15:39;;;;;;;14.93;12.50;;;5.30;99.90;;;5.58;100.00;98765.09;4854985;29;20049;-77
2021/12/04 09:18:06;;;;;;;18.65;14.73;;;5.30;99.90;;;5.51;100.00;98770.50;4847222;29;20087;-75
2021/12/04 09:20:34;;;;;;;24.35;16.67;;;5.60;99.90;;;5.58;100.00;98773.78;4864300;29;20049;-76
2021/12/04 09:23:06;;;;;;;26.42;19.77;;;5.40;99.90;;;5.67;100.00;98770.03;4883354;29;20033;-77
2021/12/04 09:25:37;;;;;;;20.20;15.85;;;6.30;99.90;;;5.55;100.00;98763.44;4849064;29;20060;-75
2021/12/04 09:36:47;;;;;;;17.83;13.85;;;5.50;99.90;;;5.81;100.00;98759.19;4837107;29;20060;-74
2021/12/04 09:59:58;;;;;;;18.95;17.13;;;5.70;99.90;;;6.06;100.00;98722.75;4840038;29;20058;-76
2021/12/04 10:21:34;;;;;;;16.20;13.63;;;7.70;99.90;;;6.12;100.00;98695.59;4864632;29;20049;-76
2021/12/04 10:35:16;;;;;;;12.20;10.95;;;6.90;99.90;;;6.19;100.00;98665.78;4860983;29;20456;-75
2021/12/04 10:37:53;;;;;;;11.10;9.98;;;6.00;99.90;;;6.27;100.00;98657.69;4878099;29;20048;-76
2021/12/04 10:40:23;;;;;;;12.05;10.77;;;6.00;99.90;;;6.31;100.00;98645.34;4879356;29;20637;-76
2021/12/04 10:43:00;;;;;;;11.38;10.15;;;6.10;99.90;;;6.26;100.00;98648.16;4863591;29;20135;-76
2021/12/04 10:45:42;;;;;;;10.43;9.43;;;6.10;99.90;;;6.17;100.00;98643.22;4878984;29;20084;-78
2021/12/04 10:48:19;;;;;;;11.10;9.93;;;6.10;99.90;;;6.18;100.00;98632.72;4878914;29;20045;-75
2021/12/04 10:53:48;;;;;;;9.45;8.48;;;7.60;99.90;;;6.26;100.00;98629.84;4878839;29;20045;-78
2021/12/04 10:56:37;;;;;;;10.07;8.63;;;7.40;99.90;;;6.34;100.00;98616.53;4882705;29;20151;-78
2021/12/04 11:01:48;;;;;;;21.38;18.10;;;6.10;99.90;;;6.40;100.00;98611.09;4878261;29;20067;-78
2021/12/04 11:04:49;;;;;;;16.52;14.73;;;6.10;99.90;;;6.38;100.00;98599.84;4848574;29;20053;-77
2021/12/04 11:18:45;;;;;;;10.43;8.90;;;6.20;99.90;;;6.42;100.00;98582.31;4863845;29;20049;-77
2021/12/04 11:24:27;;;;;;;15.57;14.18;;;6.20;99.90;;;6.43;100.00;98574.41;4859649;29;20051;-77
2021/12/04 11:40:38;;;;;;;11.13;9.98;;;6.30;99.90;;;6.52;100.00;98555.78;4845142;29;20048;-76
2021/12/04 11:43:14;;;;;;;22.73;17.80;;;6.40;99.90;;;6.43;100.00;98550.88;4860635;29;20116;-78
2021/12/04 11:46:02;;;;;;;16.88;14.73;;;6.40;99.90;;;6.40;100.00;98543.16;4860830;29;20076;-77
2021/12/04 11:48:37;;;;;;;8.65;7.82;;;6.40;99.90;;;6.45;100.00;98538.59;4868385;29;20496;-77
2021/12/04 11:51:23;;;;;;;7.88;7.07;;;6.30;99.90;;;6.50;100.00;98535.84;4860862;29;20059;-80
2021/12/04 11:53:55;;;;;;;9.18;8.30;;;6.40;99.90;;;6.53;100.00;98535.72;4846681;29;20053;-78
2021/12/04 11:56:27;;;;;;;9.68;8.13;;;6.50;99.90;;;6.53;100.00;98525.25;4862006;29;20052;-77
2021/12/04 11:58:55;;;;;;;9.40;8.50;;;7.00;99.90;;;6.55;100.00;98527.84;4846690;29;20064;-80
2021/12/04 12:01:31;;;;;;;18.20;14.40;;;6.40;99.90;;;6.60;100.00;98520.66;4871224;29;20052;-78
2021/12/04 12:04:09;;;;;;;14.68;12.25;;;7.10;99.90;;;6.54;100.00;98521.75;4861658;29;20057;-77
2021/12/04 12:06:41;;;;;;;12.13;10.85;;;6.50;99.90;;;6.59;100.00;98525.06;4888072;29;20045;-78
2021/12/04 12:09:28;;;;;;;8.30;7.50;;;6.90;99.90;;;6.63;100.00;98523.16;4877626;29;20044;-77
2021/12/04 12:12:01;;;;;;;8.20;6.90;;;6.50;99.90;;;6.58;100.00;98509.41;4863681;29;20057;-78
2021/12/04 12:14:40;;;;;;;8.60;7.70;;;6.40;99.90;;;6.61;100.00;98502.31;4876810;29;20053;-79
2021/12/04 12:17:08;;;;;;;8.65;7.63;;;6.50;99.90;;;6.59;100.00;98506.75;4882965;29;20059;-77
2021/12/04 12:19:41;;;;;;;8.45;7.65;;;6.50;99.90;;;6.61;100.00;98502.31;4880571;29;20056;-77
2021/12/04 12:25:52;;;;;;;7.75;6.82;;;6.40;99.90;;;6.70;100.00;98487.19;4882979;29;20052;-77
2021/12/04 12:37:27;;;;;;;16.15;14.45;;;6.50;99.90;;;6.71;100.00;98473.22;4893575;29;20080;-78
2021/12/04 12:40:09;;;;;;;10.30;8.85;;;6.60;99.90;;;6.71;100.00;98475.81;4878675;29;20068;-77
2021/12/04 12:42:39;;;;;;;7.28;6.53;;;6.60;99.90;;;6.72;100.00;98478.38;4877576;29;20629;-80
2021/12/04 12:45:35;;;;;;;6.80;6.10;;;6.50;99.90;;;6.70;100.00;98464.53;4865426;29;20048;-78
2021/12/04 12:48:08;;;;;;;10.15;9.02;;;6.60;99.90;;;6.73;100.00;98461.78;4857958;29;20072;-78
2021/12/04 12:50:46;;;;;;;8.57;7.78;;;6.80;99.90;;;6.77;100.00;98459.91;4843708;29;20052;-77
2021/12/04 12:53:19;;;;;;;9.00;7.90;;;6.60;99.90;;;6.77;100.00;98452.06;4881333;29;20076;-78
2021/12/04 12:55:50;;;;;;;8.13;7.38;;;8.50;99.90;;;6.77;100.00;98447.69;4845719;29;20063;-78
2021/12/04 12:58:31;;;;;;;7.45;6.63;;;6.60;99.90;;;6.76;100.00;98447.75;4857734;29;20068;-78
2021/12/04 13:12:51;;;;;;;13.82;11.70;;;6.90;99.90;;;6.89;100.00;98435.91;4874347;29;20081;-78
2021/12/04 13:15:36;;;;;;;15.55;13.20;;;7.30;99.90;;;6.91;100.00;98446.28;4874446;29;20061;-76
2021/12/04 13:18:13;;;;;;;12.75;11.10;;;6.70;99.90;;;6.98;100.00;98441.66;4862580;29;20092;-78
2021/12/04 13:20:40;;;;;;;11.07;9.68;;;6.70;99.90;;;6.93;100.00;98432.25;4893937;29;20087;-78
2021/12/04 13:23:21;;;;;;;10.27;8.93;;;6.10;99.90;;;6.98;100.00;98439.06;4844886;29;20087;-76
2021/12/04 13:25:57;;;;;;;9.75;8.85;;;6.80;99.90;;;6.98;100.00;98439.06;4876443;29;20051;-77
2021/12/04 13:28:29;;;;;;;12.18;11.00;;;6.80;99.90;;;6.99;100.00;98439.00;4876507;29;20084;-77
2021/12/04 13:31:01;;;;;;;28.17;25.77;;;6.80;99.90;;;7.06;100.00;98444.84;4846692;29;20073;-77
2021/12/04 13:33:31;;;;;;;19.27;15.18;;;6.80;99.90;;;7.02;100.00;98444.09;4880053;29;20048;-77
2021/12/04 13:35:59;;;;;;;26.50;15.30;;;6.80;99.90;;;7.04;100.00;98437.06;4868178;29;20155;-78
2021/12/04 13:38:28;;;;;;;35.97;22.08;;;6.80;99.90;;;7.12;100.00;98448.97;4846109;29;21092;-78